Northglenn, Colorado
Current Conditions -  °F | °C
As of 5:53 AM on Sunday 21 Dec 2014 (Local Time) from KBJC Reporting Station
Scattered Clouds Scattered Clouds  
Wind Chill:   Ceiling: Unl
Heat Index:   Visibility: 40mi
Dew Point: -7°   Wind: 0mph
Humidity: 60%   Direction: NA
Pressure: 29.73"   Gusts: NA
Location:  39.91°N, 104.98°W
Report Text: KBJC 211253Z 00000KT 40SM SCT200 00/M07 A2973
Loading
Personal Weather Stations






























Interactive Weather Map New forecast layout! Learn more

10-Day Weather Forecast

Advertisements
Track Severe Weather on mobile